Time;durP1;ratioP1;P1;durP2;ratioP2;P2;SDS_P1;SDS_P2;PMS_P1;PMS_P2;Temp;Humidity;BMP_temperature;BMP_pressure;BME280_temperature;BME280_humidity;BME280_pressure;Samples;Min_cycle;Max_cycle;Signal;HPM_P1;HPM_P2
2022/01/01 00:00:11;;;;;;;82.15;35.90;;;11.00;99.90;;;;;;4884622;29;20427;-74
2022/01/01 00:02:37;;;;;;;80.00;32.28;;;;;;;;;;4889803;29;20437;-74
2022/01/01 00:05:04;;;;;;;78.13;33.60;;;;;;;;;;4881714;29;20568;-74
2022/01/01 00:07:30;;;;;;;78.65;34.30;;;;;;;;;;4887910;29;20428;-75
2022/01/01 00:09:56;;;;;;;77.83;35.50;;;;;;;;;;4886776;29;20493;-75
2022/01/01 00:12:22;;;;;;;90.03;37.08;;;;;;;;;;4887406;29;20449;-74
2022/01/01 00:14:48;;;;;;;94.13;39.10;;;;;;;;;;4890230;29;20443;-74
2022/01/01 00:17:15;;;;;;;85.20;36.47;;;;;;;;;;4879337;29;20516;-75
2022/01/01 00:19:41;;;;;;;83.90;34.33;;;;;;;;;;4873064;29;20802;-74
2022/01/01 00:22:08;;;;;;;86.27;33.80;;;;;;;;;;4881292;29;20440;-74
2022/01/01 00:24:34;;;;;;;84.85;33.47;;;;;;;;;;4877631;29;20571;-75
2022/01/01 00:27:00;;;;;;;84.82;33.88;;;;;;;;;;4881684;29;20437;-75
2022/01/01 00:29:28;;;;;;;83.57;32.72;;;;;;;;;;4882119;29;20472;-75
2022/01/01 00:31:54;;;;;;;87.13;33.03;;;;;;;;;;4887761;29;20440;-74
2022/01/01 00:34:20;;;;;;;82.60;32.45;;;;;;;;;;4886497;29;20438;-74
2022/01/01 00:36:46;;;;;;;76.57;30.38;;;;;;;;;;4887965;29;20456;-74
2022/01/01 00:39:12;;;;;;;74.55;28.38;;;;;;;;;;4894133;29;20429;-74
2022/01/01 00:41:38;;;;;;;81.03;29.63;;;;;;;;;;4886810;29;20452;-75
2022/01/01 00:44:05;;;;;;;79.47;27.60;;;;;;;;;;4888629;29;20429;-75
2022/01/01 00:46:31;;;;;;;73.38;27.17;;;;;;;;;;4891515;29;20512;-75
2022/01/01 00:48:57;;;;;;;79.80;27.77;;;;;;;;;;4885039;29;20439;-74
2022/01/01 00:51:23;;;;;;;76.95;27.40;;;;;;;;;;4895881;29;20514;-75
2022/01/01 00:53:50;;;;;;;76.05;27.30;;;;;;;;;;4877486;29;20459;-75
2022/01/01 00:56:17;;;;;;;73.85;26.05;;;;;;;;;;4899937;29;20457;-75
2022/01/01 00:58:43;;;;;;;67.72;25.30;;;;;;;;;;4869929;29;20437;-75
2022/01/01 01:01:09;;;;;;;65.72;24.75;;;;;;;;;;4886702;29;20451;-75
2022/01/01 01:03:35;;;;;;;72.15;24.45;;;;;;;;;;4888680;29;20484;-75
2022/01/01 01:06:01;;;;;;;65.18;24.30;;;;;;;;;;4886719;29;20471;-74
2022/01/01 01:08:28;;;;;;;73.60;25.35;;;;;;;;;;4897891;29;20472;-74
2022/01/01 01:10:59;;;;;;;70.97;25.70;;;;;;;;;;4882064;29;20445;-74
2022/01/01 01:13:29;;;;;;;71.80;25.73;;;;;;;;;;4881907;29;20441;-74
2022/01/01 01:15:55;;;;;;;76.57;28.52;;;;;;;;;;4891990;29;20443;-74
2022/01/01 01:18:21;;;;;;;84.45;30.75;;;;;;;;;;4881741;29;20578;-75
2022/01/01 01:20:48;;;;;;;92.15;33.03;;;;;;;;;;4896219;29;20437;-74
2022/01/01 01:23:14;;;;;;;100.10;36.35;;;;;;;;;;4875880;29;20524;-75
2022/01/01 01:25:45;;;;;;;96.75;36.95;;;;;;;;;;4893721;29;20479;-75
2022/01/01 01:28:13;;;;;;;103.07;40.28;;;10.50;99.90;;;;;;4897413;29;20433;-75
2022/01/01 01:30:40;;;;;;;111.07;42.45;;;;;;;;;;4887420;29;20443;-75
2022/01/01 01:33:07;;;;;;;110.40;43.37;;;;;;;;;;4888380;29;20439;-75
2022/01/01 01:35:33;;;;;;;117.13;45.20;;;;;;;;;;4893577;29;20432;-74
2022/01/01 01:37:59;;;;;;;119.18;47.97;;;;;;;;;;4898479;29;20427;-75
2022/01/01 01:40:26;;;;;;;116.85;46.70;;;;;;;;;;4891623;29;20445;-75
2022/01/01 01:42:52;;;;;;;120.15;47.38;;;;;;;;;;4894106;29;20936;-75
2022/01/01 01:45:21;;;;;;;132.50;52.50;;;;;;;;;;4874521;29;20429;-75
2022/01/01 01:47:47;;;;;;;123.18;52.63;;;;;;;;;;4892055;29;20951;-75
2022/01/01 01:50:15;;;;;;;135.15;51.72;;;10.50;99.90;;;;;;4891404;29;20446;-75
2022/01/01 01:52:44;;;;;;;129.10;48.50;;;;;;;;;;4887934;29;20430;-74
2022/01/01 01:55:11;;;;;;;120.57;46.60;;;;;;;;;;4890124;29;20524;-75
2022/01/01 01:57:40;;;;;;;105.23;41.47;;;10.50;99.90;;;;;;4875174;29;20467;-75
2022/01/01 02:00:14;;;;;;;117.18;42.67;;;;;;;;;;4889424;29;20501;-74
2022/01/01 02:02:40;;;;;;;105.00;38.63;;;;;;;;;;4887947;29;20939;-75
2022/01/01 02:05:06;;;;;;;104.88;38.60;;;;;;;;;;4887381;29;21381;-75
2022/01/01 02:07:33;;;;;;;97.20;36.53;;;;;;;;;;4886305;29;20448;-75
2022/01/01 02:09:59;;;;;;;98.13;36.20;;;;;;;;;;4890089;29;20513;-75
2022/01/01 02:12:25;;;;;;;99.70;39.00;;;;;;;;;;4890973;29;20482;-75
2022/01/01 02:17:29;;;;;;;100.38;43.50;;;;;;;;;;4891475;29;20450;-75
2022/01/01 02:20:01;;;;;;;117.07;46.35;;;10.40;99.90;;;;;;4884339;29;20804;-75
2022/01/01 02:22:36;;;;;;;114.82;49.35;;;10.50;99.90;;;;;;4888908;29;20502;-75
2022/01/01 02:25:03;;;;;;;131.50;51.17;;;;;;;;;;4889390;29;20421;-76
2022/01/01 02:27:29;;;;;;;119.53;52.40;;;;;;;;;;4884104;29;20912;-76
2022/01/01 02:29:55;;;;;;;121.50;52.80;;;;;;;;;;4884616;29;20460;-76
2022/01/01 02:32:21;;;;;;;128.10;56.70;;;;;;;;;;4886901;29;20446;-76
2022/01/01 02:34:47;;;;;;;131.68;59.88;;;;;;;;;;4893704;29;20439;-76
2022/01/01 02:37:13;;;;;;;138.88;59.85;;;;;;;;;;4888332;29;20444;-76
2022/01/01 02:39:39;;;;;;;140.10;61.30;;;;;;;;;;4867535;29;20518;-76
2022/01/01 02:42:08;;;;;;;149.57;63.13;;;10.40;99.90;;;;;;4889931;29;20467;-76
2022/01/01 02:44:36;;;;;;;136.02;62.40;;;;;;;;;;4880139;29;20537;-74
2022/01/01 02:47:02;;;;;;;148.47;65.17;;;;;;;;;;4887120;29;20490;-75
2022/01/01 02:49:28;;;;;;;145.55;66.68;;;;;;;;;;4888959;29;20442;-74
2022/01/01 02:51:54;;;;;;;146.20;68.03;;;;;;;;;;4896805;29;20425;-75
2022/01/01 02:54:20;;;;;;;147.00;69.60;;;;;;;;;;4898207;29;20576;-74
2022/01/01 02:56:48;;;;;;;152.40;68.70;;;;;;;;;;4890872;29;20862;-75
2022/01/01 02:59:14;;;;;;;145.65;67.78;;;;;;;;;;4894201;29;20440;-74
2022/01/01 03:01:40;;;;;;;140.90;66.78;;;;;;;;;;4880542;29;20984;-74
2022/01/01 03:04:06;;;;;;;155.57;67.05;;;;;;;;;;4888192;29;20465;-74
2022/01/01 03:06:33;;;;;;;145.27;65.72;;;;;;;;;;4898118;29;20443;-74
2022/01/01 03:08:59;;;;;;;138.73;64.10;;;;;;;;;;4895770;29;20574;-74
2022/01/01 03:11:25;;;;;;;148.38;63.40;;;;;;;;;;4892046;29;20441;-74
2022/01/01 03:13:51;;;;;;;133.48;62.08;;;;;;;;;;4886536;29;20469;-75
2022/01/01 03:16:18;;;;;;;121.73;57.90;;;;;;;;;;4887167;29;20539;-74
2022/01/01 03:18:44;;;;;;;132.90;58.47;;;;;;;;;;4894089;29;20836;-75
2022/01/01 03:21:10;;;;;;;127.60;56.88;;;;;;;;;;4879715;29;20439;-74
2022/01/01 03:23:36;;;;;;;128.07;57.70;;;;;;;;;;4891373;29;20450;-74
2022/01/01 03:26:02;;;;;;;126.95;56.60;;;;;;;;;;4891747;29;20942;-75
2022/01/01 03:28:29;;;;;;;124.13;56.85;;;;;;;;;;4883945;29;20451;-76
2022/01/01 03:30:55;;;;;;;119.43;54.38;;;;;;;;;;4888023;29;20441;-76
2022/01/01 03:33:21;;;;;;;120.03;55.08;;;;;;;;;;4891289;29;20441;-75
2022/01/01 03:35:48;;;;;;;121.30;57.47;;;;;;;;;;4891638;29;20998;-76
2022/01/01 03:38:14;;;;;;;117.80;56.10;;;;;;;;;;4891303;29;20443;-75
2022/01/01 03:40:41;;;;;;;115.80;54.47;;;;;;;;;;4893856;29;20441;-76
2022/01/01 03:43:07;;;;;;;118.97;55.30;;;;;;;;;;4891707;29;20555;-76
2022/01/01 03:45:33;;;;;;;120.47;55.88;;;;;;;;;;4886238;29;20517;-76
2022/01/01 03:47:59;;;;;;;127.35;56.85;;;;;;;;;;4895549;29;20424;-76
2022/01/01 03:50:25;;;;;;;124.47;56.23;;;;;;;;;;4896146;29;20479;-76
2022/01/01 03:52:51;;;;;;;123.47;57.63;;;;;;;;;;4865013;29;20437;-76
2022/01/01 03:55:17;;;;;;;123.65;56.90;;;;;;;;;;4879722;29;20629;-76
2022/01/01 03:57:43;;;;;;;127.32;56.50;;;;;;;;;;4889799;29;20527;-76
2022/01/01 04:00:13;;;;;;;111.35;55.55;;;10.60;99.90;;;;;;4892365;29;20931;-76
2022/01/01 04:02:40;;;;;;;117.03;55.38;;;;;;;;;;4882468;29;20474;-76
2022/01/01 04:05:06;;;;;;;118.47;56.87;;;;;;;;;;4893168;29;20429;-76
2022/01/01 04:07:32;;;;;;;120.85;55.17;;;;;;;;;;4890418;29;20452;-75
2022/01/01 04:09:59;;;;;;;124.88;56.95;;;;;;;;;;4880615;29;20478;-75
2022/01/01 04:12:25;;;;;;;122.10;58.22;;;;;;;;;;4893202;29;20439;-75
2022/01/01 04:14:52;;;;;;;119.80;57.33;;;;;;;;;;4895597;29;20432;-75
2022/01/01 04:17:18;;;;;;;128.80;60.50;;;;;;;;;;4893784;29;20573;-75
2022/01/01 04:19:44;;;;;;;140.05;63.05;;;;;;;;;;4823839;29;1820112;-75
2022/01/01 04:22:11;;;;;;;135.95;66.40;;;;;;;;;;4887239;29;20528;-75
2022/01/01 04:24:38;;;;;;;136.23;70.53;;;10.40;99.90;;;;;;4905595;29;20440;-75
2022/01/01 04:27:04;;;;;;;148.37;71.43;;;;;;;;;;4893349;29;20512;-75
2022/01/01 04:29:31;;;;;;;155.80;76.10;;;;;;;;;;4887696;29;20431;-75
2022/01/01 04:31:58;;;;;;;166.20;80.88;;;;;;;;;;4892383;29;20439;-75
2022/01/01 04:34:24;;;;;;;160.70;79.78;;;;;;;;;;4892245;29;20478;-75
2022/01/01 04:37:00;;;;;;;156.10;79.43;;;;;;;;;;4873424;29;20792;-75
2022/01/01 04:39:26;;;;;;;169.65;82.55;;;;;;;;;;4885127;29;20451;-75
2022/01/01 04:41:53;;;;;;;173.10;85.57;;;;;;;;;;4889786;29;20928;-75
2022/01/01 04:44:19;;;;;;;173.75;83.18;;;;;;;;;;4889252;29;20433;-75
2022/01/01 04:46:45;;;;;;;178.25;85.90;;;;;;;;;;4889323;29;20477;-75
2022/01/01 04:49:11;;;;;;;176.40;84.50;;;;;;;;;;4892599;29;20591;-75
2022/01/01 04:51:37;;;;;;;166.70;85.95;;;;;;;;;;4901651;29;20573;-75
2022/01/01 04:54:07;;;;;;;174.95;84.18;;;;;;;;;;4894028;29;20448;-76
2022/01/01 04:56:34;;;;;;;175.50;86.18;;;;;;;;;;4883807;29;20445;-75
2022/01/01 04:59:02;;;;;;;170.17;83.77;;;;;;;;;;4894386;29;20441;-75
2022/01/01 05:01:28;;;;;;;165.55;82.80;;;;;;;;;;4892653;29;20478;-75
2022/01/01 05:03:55;;;;;;;160.95;79.65;;;;;;;;;;4889970;29;20989;-75
2022/01/01 05:06:21;;;;;;;164.48;77.88;;;;;;;;;;4904755;29;20533;-75
2022/01/01 05:08:47;;;;;;;158.38;75.07;;;;;;;;;;4895545;29;20428;-75
2022/01/01 05:11:13;;;;;;;161.02;74.30;;;;;;;;;;4875327;29;20430;-75
2022/01/01 05:13:39;;;;;;;163.40;71.63;;;;;;;;;;4874573;29;20444;-75
2022/01/01 05:16:05;;;;;;;162.90;70.05;;;;;;;;;;4883335;29;20946;-75
2022/01/01 05:18:36;;;;;;;157.27;64.90;;;;;;;;;;4896070;29;20440;-75
2022/01/01 05:21:02;;;;;;;163.50;67.65;;;;;;;;;;4885343;29;20485;-75
2022/01/01 05:23:28;;;;;;;168.23;67.43;;;;;;;;;;4889248;29;20443;-75
2022/01/01 05:25:54;;;;;;;160.45;66.57;;;;;;;;;;4878864;29;20951;-75
2022/01/01 05:28:20;;;;;;;149.82;57.38;;;;;;;;;;4911481;29;20758;-75
2022/01/01 05:30:46;;;;;;;150.55;56.40;;;;;;;;;;4894234;29;20903;-75
2022/01/01 05:33:12;;;;;;;137.23;52.60;;;;;;;;;;4895632;29;20446;-74
2022/01/01 05:35:38;;;;;;;139.93;51.80;;;;;;;;;;4884836;29;20928;-75
2022/01/01 05:38:04;;;;;;;154.38;51.33;;;;;;;;;;4889271;29;20522;-75
2022/01/01 05:40:30;;;;;;;140.50;50.23;;;;;;;;;;4888939;29;20439;-75
2022/01/01 05:42:57;;;;;;;148.18;49.67;;;;;;;;;;4897748;29;20433;-75
2022/01/01 05:45:23;;;;;;;147.25;50.97;;;;;;;;;;4889340;29;20435;-75
2022/01/01 05:47:49;;;;;;;152.18;49.92;;;;;;;;;;4870527;29;20444;-75
2022/01/01 05:50:17;;;;;;;147.30;48.30;;;;;;;;;;4890962;29;21013;-75
2022/01/01 05:52:43;;;;;;;297.95;66.60;;;;;;;;;;4887196;29;20436;-75
2022/01/01 05:55:09;;;;;;;168.23;49.53;;;;;;;;;;4909162;29;20425;-75
2022/01/01 05:57:35;;;;;;;193.63;48.83;;;;;;;;;;4890704;29;20495;-75
2022/01/01 06:00:01;;;;;;;159.77;47.13;;;;;;;;;;4902449;29;20929;-75
2022/01/01 06:02:27;;;;;;;154.25;46.05;;;;;;;;;;4884224;29;20458;-75
2022/01/01 06:04:53;;;;;;;159.80;45.35;;;;;;;;;;4888665;29;20437;-75
2022/01/01 06:07:19;;;;;;;145.43;45.50;;;;;;;;;;4900137;29;20463;-75
2022/01/01 06:09:45;;;;;;;142.77;41.70;;;;;;;;;;4880108;29;20433;-75
2022/01/01 06:12:12;;;;;;;128.00;39.30;;;;;;;;;;4893578;29;20458;-75
2022/01/01 06:14:38;;;;;;;112.38;37.72;;;;;;;;;;4895307;29;20468;-75
2022/01/01 06:17:04;;;;;;;108.00;37.00;;;;;;;;;;4892660;29;20516;-75
2022/01/01 06:19:30;;;;;;;101.78;35.85;;;;;;;;;;4889549;29;20425;-75
2022/01/01 06:21:56;;;;;;;106.25;36.25;;;;;;;;;;4903637;29;20836;-75
2022/01/01 06:24:22;;;;;;;98.97;36.28;;;;;;;;;;4879011;29;20478;-75
2022/01/01 06:26:48;;;;;;;113.20;35.87;;;;;;;;;;4891084;29;20514;-75
2022/01/01 06:29:14;;;;;;;125.78;38.47;;;;;;;;;;4888798;29;21310;-75
2022/01/01 06:31:40;;;;;;;116.85;37.25;;;;;;;;;;4896709;29;20964;-75
2022/01/01 06:34:08;;;;;;;112.35;36.72;;;;;;;;;;4878246;29;20486;-75
2022/01/01 06:36:34;;;;;;;117.22;37.90;;;;;;;;;;4891962;29;20430;-75
2022/01/01 06:39:00;;;;;;;114.88;39.13;;;;;;;;;;4880325;29;20512;-74
2022/01/01 06:41:26;;;;;;;105.95;37.72;;;;;;;;;;4892676;29;20438;-75
2022/01/01 06:43:52;;;;;;;110.15;36.78;;;;;;;;;;4885021;29;20464;-75
2022/01/01 06:46:18;;;;;;;95.05;34.03;;;;;;;;;;4889441;29;20466;-75
2022/01/01 06:48:44;;;;;;;99.22;33.78;;;;;;;;;;4886415;29;20445;-75
2022/01/01 06:51:11;;;;;;;94.65;33.70;;;;;;;;;;4882248;29;20436;-75
2022/01/01 06:53:37;;;;;;;96.70;35.05;;;;;;;;;;4885385;29;20431;-74
2022/01/01 06:56:05;;;;;;;90.85;34.63;;;;;;;;;;4889459;29;20460;-74
2022/01/01 06:58:32;;;;;;;93.93;34.28;;;;;;;;;;4890133;29;20437;-74
2022/01/01 07:00:58;;;;;;;97.97;35.10;;;;;;;;;;4902458;29;20441;-74
2022/01/01 07:03:24;;;;;;;93.13;33.63;;;;;;;;;;4898371;29;20451;-75
2022/01/01 07:05:51;;;;;;;92.80;35.08;;;;;;;;;;4895286;29;20431;-74
2022/01/01 07:08:17;;;;;;;94.28;33.95;;;;;;;;;;4889542;29;21003;-75
2022/01/01 07:10:44;;;;;;;90.13;35.07;;;;;;;;;;4890763;29;20608;-75
2022/01/01 07:13:15;;;;;;;92.25;34.17;;;10.90;99.90;;;;;;4886377;29;21009;-75
2022/01/01 07:15:41;;;;;;;86.97;32.20;;;;;;;;;;4887714;29;20445;-75
2022/01/01 07:18:07;;;;;;;86.25;33.08;;;;;;;;;;4886884;29;20442;-75
2022/01/01 07:20:33;;;;;;;87.18;32.65;;;;;;;;;;4890387;29;20442;-75
2022/01/01 07:22:59;;;;;;;83.87;33.23;;;;;;;;;;4882325;29;20466;-74
2022/01/01 07:25:25;;;;;;;94.93;36.20;;;;;;;;;;4880106;29;20501;-75
2022/01/01 07:27:51;;;;;;;95.53;32.88;;;;;;;;;;4885356;29;20431;-75
2022/01/01 07:30:17;;;;;;;83.80;32.57;;;;;;;;;;4884443;29;20442;-75
2022/01/01 07:32:47;;;;;;;78.10;31.33;;;;;;;;;;4884574;29;20501;-75
2022/01/01 07:35:14;;;;;;;80.70;32.33;;;;;;;;;;4883468;29;20573;-75
2022/01/01 07:37:40;;;;;;;90.10;32.42;;;;;;;;;;4891715;29;20939;-75
2022/01/01 07:40:08;;;;;;;86.35;35.58;;;11.30;99.90;;;;;;4886667;29;20998;-75
2022/01/01 07:42:34;;;;;;;78.85;32.30;;;;;;;;;;4881412;29;20444;-75
2022/01/01 07:45:01;;;;;;;82.72;33.67;;;11.40;99.90;;;;;;4902904;29;20441;-75
2022/01/01 07:47:27;;;;;;;80.93;32.03;;;;;;;;;;4896774;29;20997;-74
2022/01/01 07:49:53;;;;;;;79.03;33.28;;;;;;;;;;4885025;29;20472;-74
2022/01/01 07:52:19;;;;;;;77.70;33.53;;;;;;;;;;4887084;29;20443;-74
2022/01/01 07:54:45;;;;;;;82.55;35.35;;;;;;;;;;4871236;29;20509;-74
2022/01/01 07:57:11;;;;;;;87.45;35.67;;;;;;;;;;4886002;29;20501;-76
2022/01/01 07:59:37;;;;;;;87.60;35.20;;;;;;;;;;4887528;29;20451;-75
2022/01/01 08:02:04;;;;;;;84.40;34.93;;;;;;;;;;4882479;29;20527;-77
2022/01/01 08:04:30;;;;;;;89.25;39.05;;;;;;;;;;4890527;29;20435;-76
2022/01/01 08:06:56;;;;;;;87.93;37.33;;;;;;;;;;4881020;29;20423;-76
2022/01/01 08:09:22;;;;;;;86.68;34.65;;;;;;;;;;4876495;29;20439;-76
2022/01/01 08:11:50;;;;;;;86.68;36.17;;;;;;;;;;4869057;29;20445;-77
2022/01/01 08:14:16;;;;;;;98.15;38.92;;;;;;;;;;4881104;29;20453;-76
2022/01/01 08:17:03;;;;;;;91.05;39.05;;;11.90;99.90;;;;;;4871365;29;20439;-77
2022/01/01 08:19:29;;;;;;;89.68;37.15;;;;;;;;;;4882109;29;20439;-77
2022/01/01 08:21:56;;;;;;;88.45;36.55;;;;;;;;;;4880283;29;20464;-77
2022/01/01 08:24:22;;;;;;;91.97;37.83;;;;;;;;;;4882123;29;20509;-77
2022/01/01 08:26:49;;;;;;;84.57;36.47;;;;;;;;;;4881750;29;20835;-77
2022/01/01 08:29:15;;;;;;;76.90;34.47;;;;;;;;;;4884912;29;20438;-77
2022/01/01 08:31:41;;;;;;;79.00;36.00;;;;;;;;;;4889914;29;20469;-77
2022/01/01 08:34:07;;;;;;;79.85;35.03;;;;;;;;;;4872637;29;20447;-77
2022/01/01 08:36:34;;;;;;;76.10;36.03;;;;;;;;;;4872825;29;20516;-76
2022/01/01 08:39:00;;;;;;;70.57;33.42;;;;;;;;;;4904125;29;20448;-76
2022/01/01 08:41:26;;;;;;;67.25;32.60;;;12.00;99.90;;;;;;4877779;29;20440;-77
2022/01/01 08:43:52;;;;;;;66.45;32.90;;;12.00;99.90;;;;;;4877039;29;20652;-77
2022/01/01 08:46:19;;;;;;;71.35;33.08;;;;;;;;;;4896850;29;20493;-76
2022/01/01 08:48:45;;;;;;;71.57;33.00;;;;;;;;;;4878827;29;21000;-76
2022/01/01 08:51:21;;;;;;;61.40;30.48;;;;;;;;;;4885790;29;20441;-76
2022/01/01 08:53:48;;;;;;;64.90;30.95;;;;;;;;;;4889438;29;21015;-76
2022/01/01 08:56:14;;;;;;;60.97;30.90;;;;;;;;;;4891300;29;20431;-76
2022/01/01 08:58:40;;;;;;;64.50;30.67;;;;;;;;;;4894189;29;20495;-76
2022/01/01 09:01:07;;;;;;;69.70;31.75;;;;;;;;;;4861396;29;20437;-75
2022/01/01 09:03:35;;;;;;;62.65;30.40;;;;;;;;;;4898550;29;20829;-75
2022/01/01 09:06:01;;;;;;;61.35;30.38;;;;;;;;;;4886699;29;20465;-75
2022/01/01 09:08:27;;;;;;;61.58;31.77;;;;;;;;;;4897568;29;20772;-76
2022/01/01 09:10:53;;;;;;;66.57;31.33;;;;;;;;;;4879092;29;20443;-77
2022/01/01 09:13:19;;;;;;;55.95;29.20;;;;;;;;;;4894013;29;20443;-77
2022/01/01 09:15:45;;;;;;;58.95;29.38;;;;;;;;;;4888447;29;20541;-77
2022/01/01 09:18:11;;;;;;;57.90;28.35;;;;;;;;;;4878602;29;20434;-77
2022/01/01 09:20:37;;;;;;;62.10;29.52;;;;;;;;;;4880683;29;20445;-77
2022/01/01 09:23:03;;;;;;;57.10;28.10;;;;;;;;;;4869197;29;20781;-77
2022/01/01 09:25:29;;;;;;;54.67;27.23;;;;;;;;;;4897100;29;20429;-75
2022/01/01 09:27:55;;;;;;;49.42;26.92;;;;;;;;;;4901744;29;20472;-76
2022/01/01 09:30:22;;;;;;;47.97;26.25;;;;;;;;;;4890061;29;20437;-76
2022/01/01 09:32:48;;;;;;;49.08;25.83;;;;;;;;;;4893355;29;20433;-76
2022/01/01 09:35:16;;;;;;;50.35;26.33;;;;;;;;;;4883506;29;20437;-76
2022/01/01 09:37:42;;;;;;;53.63;25.52;;;;;;;;;;4889191;29;20423;-76
2022/01/01 09:40:09;;;;;;;49.42;25.27;;;;;;;;;;4895018;29;20492;-76
2022/01/01 09:42:35;;;;;;;45.97;24.63;;;;;;;;;;4874666;29;20767;-76
2022/01/01 09:45:02;;;;;;;45.75;24.10;;;;;;;;;;4906698;29;20431;-76
2022/01/01 09:47:28;;;;;;;44.38;23.63;;;;;;;;;;4906515;29;21420;-77
2022/01/01 09:49:54;;;;;;;43.85;22.50;;;;;;;;;;4893822;29;20438;-77
2022/01/01 09:52:20;;;;;;;44.53;22.95;;;;;;;;;;4902838;29;21209;-77
2022/01/01 09:54:46;;;;;;;37.93;20.73;;;;;;;;;;4894401;29;20440;-77
2022/01/01 09:57:12;;;;;;;43.67;21.13;;;;;;;;;;4875666;29;20431;-79
2022/01/01 09:59:39;;;;;;;39.67;21.20;;;;;;;;;;4866863;29;20452;-78
2022/01/01 10:02:05;;;;;;;40.95;21.33;;;12.30;99.90;;;;;;4882426;29;20492;-79
2022/01/01 10:04:42;;;;;;;35.63;19.98;;;;;;;;;;4885719;29;20869;-78
2022/01/01 10:07:08;;;;;;;43.67;21.50;;;;;;;;;;4899552;29;20431;-78
2022/01/01 10:09:35;;;;;;;39.37;20.37;;;;;;;;;;4887752;29;20439;-78
2022/01/01 10:12:02;;;;;;;47.67;21.80;;;;;;;;;;4888600;29;20517;-77
2022/01/01 10:14:35;;;;;;;38.00;20.15;;;;;;;;;;4890275;29;20429;-78
2022/01/01 10:17:08;;;;;;;34.90;18.63;;;;;;;;;;4906886;29;20926;-76
2022/01/01 10:19:34;;;;;;;35.10;18.25;;;;;;;;;;4896278;29;20897;-75
2022/01/01 10:22:03;;;;;;;32.55;17.83;;;;;;;;;;4875339;29;20473;-75
2022/01/01 10:27:42;;;;;;;30.75;17.35;;;;;;;;;;4893161;29;20467;-76
2022/01/01 10:30:00;;;;;;;32.15;16.42;;;;;;;;;;4895986;29;20441;-76
2022/01/01 10:32:27;;;;;;;31.88;16.45;;;;;;;;;;4892288;29;20876;-76
2022/01/01 10:34:53;;;;;;;31.65;16.73;;;;;;;;;;4887497;29;20495;-76
2022/01/01 10:37:27;;;;;;;30.25;17.45;;;12.40;99.90;;;;;;4901452;29;20439;-76
2022/01/01 10:39:55;;;;;;;30.58;15.82;;;;;;;;;;4893911;29;20822;-76
2022/01/01 10:42:21;;;;;;;31.53;15.27;;;;;;;;;;4884175;29;20489;-76
2022/01/01 10:44:48;;;;;;;27.48;15.60;;;;;;;;;;4891650;29;20431;-75
2022/01/01 10:47:21;;;;;;;27.30;15.27;;;;;;;;;;4891174;29;20845;-76
2022/01/01 10:52:22;;;;;;;29.77;15.55;;;;;;;;;;4898021;29;20436;-75
2022/01/01 10:54:56;;;;;;;28.92;14.38;;;12.40;99.90;;;;;;4903964;29;20497;-77
2022/01/01 10:57:23;;;;;;;30.85;14.07;;;;;;;;;;4887342;29;20529;-75
2022/01/01 10:59:50;;;;;;;27.45;14.25;;;12.80;99.90;;;;;;4900743;29;20441;-74
2022/01/01 11:02:22;;;;;;;26.23;14.40;;;12.60;99.90;;;;;;4895500;29;20512;-74
2022/01/01 11:04:48;;;;;;;25.35;13.27;;;;;;;;;;4881391;29;20437;-74
2022/01/01 11:07:27;;;;;;;25.27;12.57;;;12.40;99.90;;;;;;4885095;29;20505;-74
2022/01/01 11:09:55;;;;;;;25.17;12.23;;;12.50;99.90;;;;;;4906363;29;20431;-76
2022/01/01 11:12:22;;;;;;;24.30;13.20;;;;;;;;;;4887132;29;20449;-74
2022/01/01 11:14:48;;;;;;;25.55;12.77;;;;;;;;;;4890503;29;20436;-75
2022/01/01 11:17:15;;;;;;;25.50;12.77;;;12.50;99.90;;;;;;4892645;29;20437;-75
2022/01/01 11:19:42;;;;;;;26.45;12.70;;;;;;;;;;4911621;29;20833;-75
2022/01/01 11:22:09;;;;;;;22.35;12.15;;;12.70;99.90;;;;;;4873868;29;20447;-75
2022/01/01 11:24:38;;;;;;;19.83;11.43;;;12.80;99.90;;;;;;4874218;29;20437;-74
2022/01/01 11:27:05;;;;;;;21.00;11.38;;;;;;;;;;4898407;29;20805;-75
2022/01/01 11:29:31;;;;;;;20.00;10.77;;;;;;;;;;4895714;29;20513;-75
2022/01/01 11:31:57;;;;;;;21.15;11.43;;;;;;;;;;4885297;29;20441;-74
2022/01/01 11:34:24;;;;;;;19.23;9.83;;;;;;;;;;4896727;29;20452;-75
2022/01/01 11:36:50;;;;;;;20.08;9.60;;;;;;;;;;4897164;29;20461;-75
2022/01/01 11:39:20;;;;;;;22.13;10.00;;;13.00;99.90;;;;;;4891192;29;20433;-75
2022/01/01 11:41:46;;;;;;;23.00;9.50;;;;;;;;;;4887020;29;20441;-75
2022/01/01 11:44:27;;;;;;;21.35;9.20;;;;;;;;;;4873128;29;20521;-75
2022/01/01 11:47:00;;;;;;;21.13;9.02;;;12.90;99.90;;;;;;4883762;29;20441;-75
2022/01/01 11:49:27;;;;;;;17.27;9.13;;;;;;;;;;4886605;29;20495;-75
2022/01/01 11:51:54;;;;;;;20.08;9.23;;;;;;;;;;4899304;29;20431;-75
2022/01/01 11:54:24;;;;;;;17.17;9.27;;;;;;;;;;4893135;29;20567;-75
2022/01/01 11:56:50;;;;;;;17.65;8.50;;;;;;;;;;4889388;29;20444;-75
2022/01/01 11:59:35;;;;;;;15.95;7.97;;;;;;;;;;4891826;29;20907;-74
2022/01/01 12:02:04;;;;;;;16.40;7.85;;;;;;;;;;4891505;29;20446;-77
2022/01/01 12:04:37;;;;;;;18.13;8.30;;;;;;;;;;4880792;29;20464;-76
2022/01/01 12:07:21;;;;;;;16.92;7.93;;;;;;;;;;4899106;29;20946;-78
2022/01/01 12:10:11;;;;;;;17.63;7.78;;;;;;;;;;4888639;29;20434;-76
2022/01/01 12:12:37;;;;;;;15.32;7.50;;;;;;;;;;4886463;29;20934;-76
2022/01/01 12:15:08;;;;;;;16.08;7.82;;;;;;;;;;4902439;29;20448;-76
2022/01/01 12:18:01;;;;;;;17.15;7.55;;;;;;;;;;4910089;29;20971;-76
2022/01/01 12:20:29;;;;;;;16.25;7.78;;;;;;;;;;4871532;29;20537;-78
2022/01/01 12:22:56;;;;;;;15.10;8.40;;;;;;;;;;4890768;29;20772;-77
2022/01/01 12:25:24;;;;;;;15.35;7.72;;;;;;;;;;4898732;29;20459;-77
2022/01/01 12:27:51;;;;;;;14.70;7.30;;;;;;;;;;4887511;29;20439;-77
2022/01/01 12:30:37;;;;;;;16.15;7.32;;;;;;;;;;4889994;29;20439;-77
2022/01/01 12:33:03;;;;;;;14.60;7.15;;;;;;;;;;4894336;29;20441;-76
2022/01/01 12:35:39;;;;;;;17.27;7.45;;;;;;;;;;4910958;29;20425;-77
2022/01/01 12:38:07;;;;;;;18.30;7.95;;;;;;;;;;4881635;29;20748;-79
2022/01/01 12:40:33;;;;;;;14.98;7.00;;;;;;;;;;4895973;29;20482;-79
2022/01/01 12:43:12;;;;;;;22.17;8.38;;;;;;;;;;4907203;29;20443;-78
2022/01/01 12:45:40;;;;;;;12.73;6.85;;;;;;;;;;4871506;29;20433;-76
2022/01/01 12:48:06;;;;;;;16.77;6.90;;;;;;;;;;4895677;29;20963;-76
2022/01/01 12:50:32;;;;;;;17.20;7.25;;;;;;;;;;4897347;29;20440;-78
2022/01/01 12:53:01;;;;;;;16.92;7.22;;;;;;;;;;4890563;29;20489;-77
2022/01/01 12:55:27;;;;;;;16.40;7.32;;;;;;;;;;4883103;29;20931;-77
2022/01/01 12:58:07;;;;;;;17.05;7.45;;;;;;;;;;4910614;29;20513;-78
2022/01/01 13:00:37;;;;;;;14.00;7.35;;;;;;;;;;4895789;29;20444;-78
2022/01/01 13:03:04;;;;;;;16.15;7.88;;;;;;;;;;4889525;29;20433;-78
2022/01/01 13:05:30;;;;;;;13.00;7.65;;;;;;;;;;4899285;29;20768;-77
2022/01/01 13:07:56;;;;;;;15.40;7.45;;;;;;;;;;4882738;29;20802;-78
2022/01/01 13:10:25;;;;;;;13.95;7.55;;;;;;;;;;4895711;29;20875;-78
2022/01/01 13:12:55;;;;;;;14.20;7.20;;;13.40;99.90;;;;;;4887503;29;20957;-77
2022/01/01 13:15:23;;;;;;;12.95;7.55;;;13.30;99.90;;;;;;4897114;29;20892;-77
2022/01/01 13:17:50;;;;;;;13.13;7.50;;;;;;;;;;4889052;29;20433;-77
2022/01/01 13:20:16;;;;;;;16.75;8.27;;;;;;;;;;4888703;29;20994;-77
2022/01/01 13:22:42;;;;;;;17.23;8.50;;;;;;;;;;4889029;29;20948;-76
2022/01/01 13:25:09;;;;;;;15.48;7.97;;;;;;;;;;4894459;29;20428;-76
2022/01/01 13:27:35;;;;;;;18.52;8.65;;;;;;;;;;4899268;29;20440;-76
2022/01/01 13:30:01;;;;;;;15.93;9.00;;;;;;;;;;4899189;29;20433;-77
2022/01/01 13:32:28;;;;;;;15.57;8.30;;;;;;;;;;4880936;29;20483;-77
2022/01/01 13:34:54;;;;;;;13.98;8.40;;;;;;;;;;4883377;29;20719;-77
2022/01/01 13:37:24;;;;;;;16.67;8.57;;;;;;;;;;4895463;29;20442;-77
2022/01/01 13:39:53;;;;;;;14.00;8.30;;;;;;;;;;4896581;29;20727;-77
2022/01/01 13:42:19;;;;;;;16.25;8.68;;;;;;;;;;4882627;29;20475;-77
2022/01/01 13:44:45;;;;;;;13.57;7.97;;;;;;;;;;4896529;29;20440;-78
2022/01/01 13:47:23;;;;;;;15.77;8.33;;;;;;;;;;4882540;29;20441;-78
2022/01/01 13:49:50;;;;;;;16.30;8.57;;;;;;;;;;4905105;29;20430;-77
2022/01/01 13:52:43;;;;;;;16.13;8.90;;;13.10;99.90;;;;;;4906311;29;20434;-78
2022/01/01 13:55:10;;;;;;;16.55;9.48;;;;;;;;;;4889190;29;20547;-77
2022/01/01 13:57:39;;;;;;;16.50;8.95;;;;;;;;;;4885997;29;20431;-77
2022/01/01 14:00:07;;;;;;;14.80;8.70;;;;;;;;;;4889722;29;20442;-77
2022/01/01 14:02:33;;;;;;;14.55;8.45;;;;;;;;;;4887633;29;20444;-78
2022/01/01 14:05:00;;;;;;;17.30;8.52;;;;;;;;;;4886985;29;20435;-77
2022/01/01 14:07:26;;;;;;;14.93;8.83;;;;;;;;;;4893941;29;20434;-77
2022/01/01 14:10:20;;;;;;;15.95;9.43;;;13.10;99.90;;;;;;4883812;29;20427;-77
2022/01/01 14:12:50;;;;;;;18.00;10.93;;;;;;;;;;4873276;29;20535;-77